Time;durP1;ratioP1;P1;durP2;ratioP2;P2;SDS_P1;SDS_P2;PMS_P1;PMS_P2;Temp;Humidity;BMP_temperature;BMP_pressure;BME280_temperature;BME280_humidity;BME280_pressure;Samples;Min_cycle;Max_cycle;Signal;HPM_P1;HPM_P2
2023/11/22 00:00:20;;;;;;;5.37;4.87;;;;;;;7.28;100.00;99236.59;5098980;28;20783;-80
2023/11/22 00:02:47;;;;;;;5.73;5.07;;;;;;;7.29;100.00;99243.56;5099303;28;20253;-80
2023/11/22 00:05:14;;;;;;;5.83;5.17;;;;;;;7.22;100.00;99242.78;5097239;28;20207;-80
2023/11/22 00:07:41;;;;;;;6.53;5.90;;;;;;;7.32;100.00;99248.50;5100005;28;20198;-79
2023/11/22 00:10:08;;;;;;;6.43;5.10;;;;;;;7.31;100.00;99246.88;5105875;28;20187;-79
2023/11/22 00:12:38;;;;;;;5.53;5.00;;;;;;;7.33;100.00;99249.31;5091914;28;20253;-79
2023/11/22 00:15:07;;;;;;;6.60;5.60;;;;;;;7.29;100.00;99248.09;5103856;28;20195;-79
2023/11/22 00:17:34;;;;;;;7.70;5.90;;;;;;;7.27;100.00;99258.97;5074690;28;20213;-82
2023/11/22 00:20:05;;;;;;;7.03;6.33;;;;;;;7.34;100.00;99262.44;5074221;28;20660;-79
2023/11/22 00:22:32;;;;;;;7.27;6.57;;;;;;;7.33;100.00;99263.44;5096780;28;20220;-78
2023/11/22 00:25:03;;;;;;;7.30;6.60;;;;;;;7.37;100.00;99258.53;5088614;28;20207;-80
2023/11/22 00:27:33;;;;;;;7.37;6.67;;;;;;;7.51;100.00;99249.50;5094137;28;20202;-79
2023/11/22 00:30:00;;;;;;;7.80;7.00;;;;;;;7.43;100.00;99255.84;5100636;28;20198;-78
2023/11/22 00:32:27;;;;;;;7.37;6.67;;;;;;;7.37;100.00;99262.00;5089661;28;20190;-80
2023/11/22 00:34:54;;;;;;;7.60;6.80;;;;;;;7.30;100.00;99265.72;5092206;28;20192;-78
2023/11/22 00:37:21;;;;;;;8.30;7.50;;;;;;;7.38;100.00;99262.81;5092705;28;20253;-80
2023/11/22 00:39:47;;;;;;;8.57;7.70;;;;;;;7.36;100.00;99267.56;5097782;28;20200;-79
2023/11/22 00:42:14;;;;;;;7.93;7.23;;;;;;;7.34;100.00;99266.94;5092171;28;20227;-79
2023/11/22 00:44:41;;;;;;;8.73;7.83;;;;;;;7.33;100.00;99281.28;5092152;28;20193;-79
2023/11/22 00:47:08;;;;;;;8.17;7.37;;;;;;;7.36;100.00;99283.56;5099228;28;20192;-81
2023/11/22 00:49:35;;;;;;;8.70;7.90;;;;;;;7.34;100.00;99288.25;5094785;28;20254;-83
2023/11/22 00:52:02;;;;;;;9.33;8.43;;;;;;;7.36;100.00;99289.72;5101723;28;20654;-80
2023/11/22 00:54:30;;;;;;;9.60;8.50;;;;;;;7.31;100.00;99286.84;5098897;28;20194;-79
2023/11/22 00:56:56;;;;;;;9.63;8.63;;;;;;;7.23;100.00;99289.69;5089158;28;20231;-79
2023/11/22 00:59:23;;;;;;;9.97;8.97;;;;;;;7.17;100.00;99295.03;5103118;28;20699;-80
2023/11/22 01:01:50;;;;;;;9.70;8.80;;;;;;;7.17;100.00;99290.53;5098625;28;20223;-79
2023/11/22 01:04:17;;;;;;;11.13;10.03;;;;;;;7.17;100.00;99287.88;5095041;28;20295;-79
2023/11/22 01:06:43;;;;;;;10.60;9.50;;;;;;;7.08;100.00;99289.94;5095101;28;20674;-78
2023/11/22 01:09:13;;;;;;;10.23;9.30;;;;;;;7.06;100.00;99299.97;5096243;28;20264;-79
2023/11/22 01:11:40;;;;;;;10.73;9.67;;;;;;;7.05;100.00;99302.81;5089050;28;20195;-80
2023/11/22 01:14:07;;;;;;;10.57;9.57;;;;;;;7.12;100.00;99302.81;5101034;28;20191;-79
2023/11/22 01:16:36;;;;;;;11.00;9.90;;;;;;;7.05;100.00;99303.63;5105739;28;20199;-80
2023/11/22 01:19:03;;;;;;;10.53;9.30;;;;;;;6.97;100.00;99305.69;5081265;28;20192;-78
2023/11/22 01:21:31;;;;;;;10.57;9.50;;;;;;;6.86;100.00;99309.78;5099719;28;20256;-80
2023/11/22 01:23:58;;;;;;;10.97;9.87;;;;;;;6.93;100.00;99302.63;5090264;28;20300;-80
2023/11/22 01:26:25;;;;;;;10.57;9.47;;;;;;;6.95;100.00;99310.41;5099610;28;20216;-80
2023/11/22 01:28:52;;;;;;;10.83;9.80;;;;;;;6.93;100.00;99313.28;5095173;28;20240;-80
2023/11/22 01:31:21;;;;;;;10.03;9.00;;;;;;;6.88;100.00;99318.38;5082405;28;20256;-79
2023/11/22 01:33:48;;;;;;;10.73;9.67;;;;;;;6.81;100.00;99322.06;5089508;28;20197;-79
2023/11/22 01:36:17;;;;;;;11.00;9.90;;;;;;;6.82;100.00;99324.53;5066337;28;20703;-79
2023/11/22 01:38:46;;;;;;;10.57;9.57;;;;;;;6.76;100.00;99317.38;5092115;28;20218;-79
2023/11/22 01:41:13;;;;;;;10.43;9.40;;;;;;;6.71;100.00;99313.66;5090406;28;20209;-78
2023/11/22 01:43:41;;;;;;;9.50;8.60;;;;;;;6.69;100.00;99313.03;5097770;28;20291;-79
2023/11/22 01:46:08;;;;;;;8.63;7.73;;;;;;;6.68;100.00;99322.03;5105835;28;20656;-80
2023/11/22 01:48:36;;;;;;;9.37;8.47;;;;;;;6.65;100.00;99312.63;5064785;28;20241;-80
2023/11/22 01:51:04;;;;;;;8.77;7.97;;;;;;;6.58;100.00;99328.56;5094964;28;20191;-80
2023/11/22 01:53:31;;;;;;;9.03;8.17;;;;;;;6.50;100.00;99323.44;5085587;28;20198;-79
2023/11/22 01:55:58;;;;;;;8.57;7.67;;;;;;;6.39;100.00;99329.31;5106117;28;20715;-80
2023/11/22 01:58:26;;;;;;;8.33;7.53;;;;;;;6.47;100.00;99326.50;5109868;28;20196;-80
2023/11/22 02:00:53;;;;;;;7.40;6.70;;;;;;;6.48;100.00;99330.81;5099785;28;20192;-79
2023/11/22 02:03:21;;;;;;;6.77;6.13;;;;;;;6.38;100.00;99329.53;5099077;28;20248;-78
2023/11/22 02:05:50;;;;;;;6.50;5.77;;;;;;;6.35;100.00;99344.06;5094016;28;20201;-79
2023/11/22 02:08:18;;;;;;;6.70;6.07;;;;;;;6.28;100.00;99345.88;5089067;28;20215;-79
2023/11/22 02:10:49;;;;;;;6.00;5.40;;;;;;;6.26;100.00;99341.75;5105318;28;20245;-79
2023/11/22 02:13:16;;;;;;;5.37;4.87;;;;;;;6.15;100.00;99349.31;5101337;28;20215;-79
2023/11/22 02:15:42;;;;;;;5.73;5.10;;;;;;;6.01;100.00;99355.59;5085363;28;20218;-79
2023/11/22 02:18:09;;;;;;;5.97;5.00;;;;;;;6.04;100.00;99351.69;5088283;28;20207;-79
2023/11/22 02:20:41;;;;;;;5.10;4.60;;;;;;;5.96;100.00;99362.50;5106885;28;20562;-80
2023/11/22 02:23:09;;;;;;;6.20;4.40;;;;;;;5.88;100.00;99365.34;5095761;28;20226;-79
2023/11/22 02:25:36;;;;;;;4.93;4.43;;;;;;;5.86;100.00;99368.16;5086425;28;20192;-78
2023/11/22 02:28:03;;;;;;;5.57;4.70;;;;;;;5.84;100.00;99379.97;5107045;28;20190;-79
2023/11/22 02:30:31;;;;;;;5.10;4.60;;;;;;;5.73;100.00;99373.38;5099847;28;20215;-80
2023/11/22 02:32:58;;;;;;;4.93;4.47;;;;;;;5.68;100.00;99378.47;5102483;28;20185;-80
2023/11/22 02:35:26;;;;;;;4.67;4.27;;;;;;;5.70;100.00;99382.56;5086920;28;20188;-80
2023/11/22 02:37:54;;;;;;;5.23;4.67;;;;;;;5.72;100.00;99382.38;5098251;28;20196;-81
2023/11/22 02:40:21;;;;;;;4.73;4.33;;;;;;;5.60;100.00;99379.41;5087207;28;20200;-80
2023/11/22 02:42:49;;;;;;;5.13;4.63;;;;;;;5.65;100.00;99381.47;5095885;28;20209;-80
2023/11/22 02:45:17;;;;;;;5.23;4.77;;;;;;;5.62;100.00;99379.22;5103339;28;20183;-79
2023/11/22 02:47:46;;;;;;;5.33;4.83;;;;;;;5.53;100.00;99377.72;5076714;28;20643;-79
2023/11/22 02:50:13;;;;;;;6.00;5.40;;;;;;;5.57;100.00;99385.13;5074451;28;20206;-82
2023/11/22 02:52:41;;;;;;;5.70;5.20;;;;;;;5.50;100.00;99380.78;5096724;28;20275;-79
2023/11/22 02:55:12;;;;;;;5.20;4.70;;;;;;;5.50;100.00;99378.13;5101956;28;20184;-79
2023/11/22 02:57:42;;;;;;;7.70;5.07;;;;;;;5.45;100.00;99372.56;5099297;28;20683;-80
2023/11/22 03:00:15;;;;;;;5.93;5.33;;;;;;;5.24;100.00;99374.22;5093952;28;20230;-80
2023/11/22 03:02:42;;;;;;;5.60;5.10;;;;;;;5.19;100.00;99387.25;5080474;28;20262;-80
2023/11/22 03:05:10;;;;;;;6.27;5.37;;;;;;;5.25;100.00;99391.81;5101101;28;20199;-80
2023/11/22 03:07:37;;;;;;;6.07;5.40;;;;;;;5.23;100.00;99393.81;5077820;28;20196;-80
2023/11/22 03:10:05;;;;;;;5.80;5.17;;;;;;;5.26;100.00;99408.59;5088718;28;20244;-79
2023/11/22 03:12:34;;;;;;;6.00;5.20;;;;;;;5.27;100.00;99416.34;5104217;28;20192;-79
2023/11/22 03:15:02;;;;;;;5.60;5.10;;;;;;;5.24;100.00;99413.25;5114307;28;20191;-79
2023/11/22 03:17:29;;;;;;;5.53;5.03;;;;;;;5.19;100.00;99419.13;5106055;28;20185;-80
2023/11/22 03:19:56;;;;;;;6.43;5.33;;;;;;;5.16;100.00;99427.50;5085336;28;20203;-80
2023/11/22 03:22:30;;;;;;;5.73;5.23;;;;;;;5.10;100.00;99433.56;5093627;28;20216;-81
2023/11/22 03:25:00;;;;;;;6.53;5.93;;;;;;;5.12;100.00;99447.47;5084463;28;20184;-80
2023/11/22 03:27:27;;;;;;;6.10;5.40;;;;;;;5.10;100.00;99446.00;5102123;28;20188;-80
2023/11/22 03:29:53;;;;;;;9.00;5.93;;;;;;;5.01;100.00;99447.97;5110112;28;20183;-79
2023/11/22 03:32:21;;;;;;;5.80;5.30;;;;;;;5.02;100.00;99446.13;5091832;28;20240;-79
2023/11/22 03:34:48;;;;;;;5.47;4.90;;;;;;;5.03;100.00;99451.25;5096168;28;20192;-79
2023/11/22 03:37:15;;;;;;;6.10;5.50;;;;;;;4.97;100.00;99467.09;5111181;28;20601;-79
2023/11/22 03:39:48;;;;;;;5.30;4.80;;;;;;;4.86;100.00;99471.88;5089367;28;20192;-80
2023/11/22 03:42:18;;;;;;;6.07;5.47;;;;;;;4.94;100.00;99472.81;5103010;28;20378;-80
2023/11/22 03:44:45;;;;;;;5.50;5.00;;;;;;;4.88;100.00;99493.78;5100674;28;20657;-81
2023/11/22 03:47:13;;;;;;;5.60;5.10;;;;;;;4.88;100.00;99482.34;5104327;28;20188;-80
2023/11/22 03:49:40;;;;;;;5.47;4.97;;;;;;;4.91;100.00;99487.25;5098839;28;20223;-79
2023/11/22 03:52:08;;;;;;;5.13;4.73;;;;;;;4.83;100.00;99492.69;5105609;28;20261;-80
2023/11/22 03:54:35;;;;;;;6.57;4.87;;;;;;;4.83;100.00;99504.13;5105444;28;20194;-80
2023/11/22 03:57:02;;;;;;;6.80;5.57;;;;;;;4.87;100.00;99512.53;5080082;28;20200;-80
2023/11/22 03:59:29;;;;;;;6.30;5.63;;;;;;;4.81;100.00;99515.91;5094513;28;20282;-79
2023/11/22 04:01:56;;;;;;;6.03;5.43;;;;;;;4.87;100.00;99523.16;5108286;28;20715;-79
2023/11/22 04:04:23;;;;;;;6.57;5.63;;;;;;;4.84;100.00;99534.16;5102234;28;20202;-80
2023/11/22 04:06:50;;;;;;;6.30;5.70;;;;;;;4.77;100.00;99527.91;5110021;28;20238;-81
2023/11/22 04:09:17;;;;;;;6.83;6.10;;;;;;;4.76;100.00;99536.88;5094826;28;20184;-80
2023/11/22 04:11:43;;;;;;;6.83;6.13;;;;;;;4.70;100.00;99538.47;5107563;28;20187;-79
2023/11/22 04:14:10;;;;;;;7.00;6.27;;;;;;;4.67;100.00;99543.31;5066705;28;20655;-80
2023/11/22 04:16:37;;;;;;;6.33;5.83;;;;;;;4.52;100.00;99545.97;5102632;28;20195;-79
2023/11/22 04:19:04;;;;;;;6.97;6.30;;;;;;;4.54;100.00;99545.78;5096180;28;20207;-79
2023/11/22 04:21:31;;;;;;;6.50;5.87;;;;;;;4.49;100.00;99554.28;5067651;28;20641;-80
2023/11/22 04:23:58;;;;;;;6.90;6.23;;;;;;;4.50;100.00;99561.25;5096993;28;20191;-78
2023/11/22 04:26:26;;;;;;;6.47;5.87;;;;;;;4.57;100.00;99569.31;5097420;28;20195;-80
2023/11/22 04:28:53;;;;;;;6.10;5.50;;;;;;;4.56;100.00;99578.28;5084293;28;20213;-79
2023/11/22 04:31:20;;;;;;;6.50;5.90;;;;;;;4.51;100.00;99580.66;5092527;28;20285;-79
2023/11/22 04:33:46;;;;;;;7.20;5.83;;;;;;;4.58;100.00;99579.72;5107880;28;20282;-79
2023/11/22 04:36:13;;;;;;;5.80;5.30;;;;;;;4.54;100.00;99586.41;5104791;28;20191;-79
2023/11/22 04:38:40;;;;;;;6.00;5.40;;;;;;;4.60;100.00;99592.81;5103102;28;20712;-80
2023/11/22 04:41:07;;;;;;;6.33;5.73;;;;;;;4.50;100.00;99600.22;5082402;28;20196;-78
2023/11/22 04:43:34;;;;;;;6.20;5.60;;;;;;;4.56;100.00;99596.84;5095056;28;20207;-82
2023/11/22 04:46:01;;;;;;;6.23;5.70;;;;;;;4.52;100.00;99607.00;5095063;28;20245;-78
2023/11/22 04:48:28;;;;;;;5.83;5.33;;;;;;;4.51;100.00;99607.19;5091814;28;20224;-82
2023/11/22 04:50:55;;;;;;;6.23;5.73;;;;;;;4.42;100.00;99622.34;5083676;28;20200;-80
2023/11/22 04:53:21;;;;;;;6.30;5.77;;;;;;;4.38;100.00;99627.19;5100521;28;20244;-79
2023/11/22 04:55:49;;;;;;;6.20;5.63;;;;;;;4.34;100.00;99628.53;5103904;28;20224;-82
2023/11/22 04:58:15;;;;;;;6.47;5.83;;;;;;;4.30;100.00;99635.22;5095332;28;20230;-78
2023/11/22 05:00:42;;;;;;;6.30;5.33;;;;;;;4.32;100.00;99643.81;5096985;28;20243;-78
2023/11/22 05:03:09;;;;;;;6.40;5.80;;;;;;;4.32;100.00;99656.25;5108399;28;20223;-82
2023/11/22 05:05:36;;;;;;;5.87;5.27;;;;;;;4.35;100.00;99661.19;5104151;28;20203;-81
2023/11/22 05:08:03;;;;;;;6.27;5.67;;;;;;;4.37;100.00;99656.56;5102277;28;20663;-80
2023/11/22 05:10:30;;;;;;;5.90;5.30;;;;;;;4.26;100.00;99657.78;5094912;28;20220;-79
2023/11/22 05:12:59;;;;;;;6.40;5.77;;;;;;;4.24;100.00;99648.38;5103130;28;20221;-79
2023/11/22 05:15:27;;;;;;;6.40;5.80;;;;;;;4.25;100.00;99640.22;5102969;28;20222;-80
2023/11/22 05:17:54;;;;;;;7.20;6.10;;;;;;;4.23;100.00;99646.72;5058445;28;20196;-81
2023/11/22 05:20:21;;;;;;;6.30;5.70;;;;;;;4.18;100.00;99662.34;5080533;28;20192;-82
2023/11/22 05:22:48;;;;;;;6.80;6.10;;;;;;;4.16;100.00;99659.03;5100740;28;20212;-81
2023/11/22 05:25:14;;;;;;;6.40;5.80;;;;;;;4.16;100.00;99646.59;5101756;28;20655;-80
2023/11/22 05:27:41;;;;;;;6.40;5.80;;;;;;;4.05;100.00;99654.16;5092804;28;20192;-79
2023/11/22 05:30:10;;;;;;;6.33;5.73;;;;;;;4.00;100.00;99657.34;5109094;28;20304;-79
2023/11/22 05:32:38;;;;;;;6.80;6.20;;;;;;;4.00;100.00;99665.28;5096853;28;20195;-81
2023/11/22 05:35:09;;;;;;;6.60;6.00;;;;;;;3.94;100.00;99669.47;5107085;28;20194;-82
2023/11/22 05:37:36;;;;;;;6.77;6.03;;;;;;;3.91;100.00;99669.00;5092795;28;20678;-80
2023/11/22 05:40:05;;;;;;;6.90;6.20;;;;;;;3.93;100.00;99673.13;5074423;28;20246;-80
2023/11/22 05:42:32;;;;;;;7.77;6.43;;;;;;;3.96;100.00;99670.13;5102324;28;20211;-79
2023/11/22 05:44:58;;;;;;;6.87;6.27;;;;;;;3.94;100.00;99669.47;5079280;28;20196;-80
2023/11/22 05:47:25;;;;;;;6.60;5.90;;;;;;;3.86;100.00;99680.13;5093673;28;20201;-80
2023/11/22 05:49:52;;;;;;;5.73;5.23;;;;;;;3.88;100.00;99682.59;5082601;28;20323;-80
2023/11/22 05:52:20;;;;;;;6.10;5.50;;;;;;;3.82;100.00;99686.78;5096574;28;20187;-81
2023/11/22 05:54:47;;;;;;;6.63;6.03;;;;;;;3.83;100.00;99687.59;5105331;28;20195;-80
2023/11/22 05:57:15;;;;;;;6.07;5.47;;;;;;;3.76;100.00;99700.72;5108855;28;20241;-80
2023/11/22 05:59:41;;;;;;;6.30;5.70;;;;;;;3.86;100.00;99705.81;5092253;28;20200;-80
2023/11/22 06:02:08;;;;;;;6.23;5.63;;;;;;;3.76;100.00;99713.97;5097498;28;20191;-80
2023/11/22 06:04:35;;;;;;;5.77;5.27;;;;;;;3.72;100.00;99717.97;5096214;28;20184;-81
2023/11/22 06:07:04;;;;;;;6.17;5.50;;;;;;;3.70;100.00;99712.00;5099301;28;20203;-80
2023/11/22 06:09:31;;;;;;;5.63;5.10;;;;;;;3.65;100.00;99718.81;5097682;28;20189;-79
2023/11/22 06:11:58;;;;;;;6.10;5.50;;;;;;;3.70;100.00;99730.56;5102176;28;20188;-78
2023/11/22 06:14:25;;;;;;;5.87;5.27;;;;;;;3.68;100.00;99721.16;5100698;28;20236;-80
2023/11/22 06:16:51;;;;;;;6.47;5.87;;;;;;;3.64;100.00;99727.78;5096422;28;20185;-80
2023/11/22 06:19:18;;;;;;;6.30;5.70;;;;;;;3.54;100.00;99739.44;5100337;28;20252;-79
2023/11/22 06:21:45;;;;;;;6.63;5.93;;;;;;;3.52;100.00;99740.59;5095162;28;20212;-78
2023/11/22 06:24:15;;;;;;;6.80;6.10;;;;;;;3.48;100.00;99741.91;5102374;28;20240;-80
2023/11/22 06:26:43;;;;;;;6.37;5.77;;;;;;;3.52;100.00;99744.06;5094879;28;20204;-80
2023/11/22 06:29:10;;;;;;;6.43;5.83;;;;;;;3.52;100.00;99757.31;5102619;28;20271;-80
2023/11/22 06:31:38;;;;;;;7.00;6.30;;;;;;;3.52;100.00;99751.19;5092562;27;20197;-80
2023/11/22 06:34:05;;;;;;;7.07;6.37;;;;;;;3.50;100.00;99756.63;5094045;28;20245;-84
2023/11/22 06:36:32;;;;;;;7.10;6.40;;;;;;;3.49;100.00;99762.13;5105897;28;20214;-82
2023/11/22 06:38:59;;;;;;;7.27;6.57;;;;;;;3.49;100.00;99773.56;5100534;28;20196;-81
2023/11/22 06:41:26;;;;;;;7.17;6.10;;;;;;;3.50;100.00;99771.69;5105679;28;20184;-81
2023/11/22 06:43:53;;;;;;;6.83;6.13;;;;;;;3.52;100.00;99773.19;5097011;28;20212;-81
2023/11/22 06:46:19;;;;;;;6.67;6.00;;;;;;;3.53;100.00;99782.81;5094141;28;20721;-80
2023/11/22 06:48:47;;;;;;;7.00;6.30;;;;;;;3.41;100.00;99793.91;5101503;28;20258;-79
2023/11/22 06:51:16;;;;;;;7.07;6.23;;;;;;;3.46;100.00;99795.06;5096856;28;20253;-80
2023/11/22 06:53:44;;;;;;;6.53;5.93;;;;;;;3.47;100.00;99802.03;5077341;28;20656;-80
2023/11/22 06:56:11;;;;;;;6.97;5.70;;;;;;;3.46;100.00;99800.34;5095610;28;20188;-80
2023/11/22 06:58:38;;;;;;;6.87;6.10;;;;;;;3.40;100.00;99816.94;5098028;28;20211;-79
2023/11/22 07:01:07;;;;;;;7.33;6.63;;;;;;;3.46;100.00;99818.06;5106843;28;20724;-79
2023/11/22 07:03:33;;;;;;;8.57;7.67;;;;;;;3.43;100.00;99815.78;5104424;28;20592;-79
2023/11/22 07:06:03;;;;;;;7.17;6.53;;;;;;;3.38;100.00;99826.88;5101912;28;20196;-78
2023/11/22 07:08:30;;;;;;;7.40;6.70;;;;;;;3.39;100.00;99825.06;5100699;28;20241;-79
2023/11/22 07:10:57;;;;;;;7.07;6.27;;;;;;;3.40;100.00;99838.13;5107822;28;20193;-78
2023/11/22 07:13:24;;;;;;;7.10;6.40;;;;;;;3.34;100.00;99841.44;5106138;28;20191;-79
2023/11/22 07:15:51;;;;;;;6.57;5.97;;;;;;;3.38;100.00;99842.75;5097709;28;20231;-82
2023/11/22 07:18:18;;;;;;;6.90;6.20;;;;;;;3.39;100.00;99847.06;5111822;28;20184;-79
2023/11/22 07:20:48;;;;;;;8.13;6.00;;;;;;;3.35;100.00;99848.41;5097318;28;20789;-79
2023/11/22 07:23:15;;;;;;;6.03;5.40;;;;;;;3.43;100.00;99852.84;5088762;28;20242;-79
2023/11/22 07:25:43;;;;;;;6.63;5.90;;;;;;;3.30;100.00;99853.38;5115322;28;20207;-80
2023/11/22 07:28:10;;;;;;;6.80;6.10;;;;;;;3.29;100.00;99854.38;5113481;28;20647;-80
2023/11/22 07:30:39;;;;;;;7.30;6.43;;;;;;;3.34;100.00;99872.41;5100744;28;21434;-80
2023/11/22 07:33:06;;;;;;;7.77;6.53;;;;;;;3.38;100.00;99871.91;5101758;28;20192;-79
2023/11/22 07:35:33;;;;;;;7.20;6.50;;;;;;;3.38;100.00;99874.56;5093634;28;20207;-80
2023/11/22 07:38:01;;;;;;;7.00;6.30;;;;;;;3.38;100.00;99885.16;5107620;28;20192;-79
2023/11/22 07:40:27;;;;;;;7.10;6.40;;;;;;;3.39;100.00;99892.09;5094373;28;20184;-81
2023/11/22 07:42:54;;;;;;;9.63;6.93;;;;;;;3.28;100.00;99887.13;5106215;28;20268;-79
2023/11/22 07:45:22;;;;;;;8.70;7.70;;;;;;;3.40;100.00;99896.41;5105792;28;20196;-79
2023/11/22 07:47:49;;;;;;;9.13;7.10;;;;;;;3.40;100.00;99890.28;5101300;28;20228;-81
2023/11/22 07:50:16;;;;;;;8.10;7.07;;;;;;;3.36;100.00;99892.41;5106841;28;20656;-81
2023/11/22 07:52:44;;;;;;;9.00;8.10;;;;;;;3.33;100.00;99900.72;5107040;28;20192;-79
2023/11/22 07:55:10;;;;;;;10.83;9.83;;;;;;;3.25;100.00;99892.78;5107211;28;20195;-79
2023/11/22 07:57:38;;;;;;;8.43;7.60;;;;;;;3.29;100.00;99896.75;5107838;28;20187;-80
2023/11/22 08:00:07;;;;;;;8.40;7.13;;;;;;;3.29;100.00;99888.78;5091186;28;20207;-79
2023/11/22 08:02:42;;;;;;;7.90;7.10;;;;;;;3.23;100.00;99897.38;5092737;28;20212;-79
2023/11/22 08:05:10;;;;;;;11.53;7.30;;;;;;;3.24;100.00;99896.41;5068910;28;20219;-78
2023/11/22 08:07:40;;;;;;;9.53;7.53;;;;;;;3.23;100.00;99913.28;5090222;28;20180;-80
2023/11/22 08:10:18;;;;;;;9.63;7.20;;;;;;;3.15;100.00;99912.47;5085929;28;20192;-79
2023/11/22 08:12:47;;;;;;;8.30;7.23;;;;;;;3.21;100.00;99917.09;5099833;28;20184;-81
2023/11/22 08:15:17;;;;;;;8.00;7.20;;;;;;;3.21;100.00;99930.34;5092440;28;20200;-79
2023/11/22 08:17:44;;;;;;;9.23;7.50;;;;;;;3.23;100.00;99931.81;5103596;28;20200;-79
2023/11/22 08:20:17;;;;;;;8.60;7.50;;;;;;;3.23;100.00;99925.69;5103893;28;20192;-79
2023/11/22 08:22:50;;;;;;;8.87;7.97;;;;;;;3.33;100.00;99931.66;5102125;28;20194;-78
2023/11/22 08:25:18;;;;;;;9.07;7.93;;;;;;;3.36;100.00;99934.78;5094674;28;20196;-79
2023/11/22 08:27:45;;;;;;;8.50;7.70;;;;;;;3.38;100.00;99947.88;5107490;28;20198;-78
2023/11/22 08:30:15;;;;;;;8.83;7.93;;;;;;;3.43;100.00;99956.16;5096285;28;20183;-80
2023/11/22 08:32:47;;;;;;;9.33;7.90;;;;;;;3.46;100.00;99966.41;5108915;28;20200;-80
2023/11/22 08:35:15;;;;;;;8.57;7.73;;;;;;;3.50;100.00;99971.22;5092081;28;20188;-80
2023/11/22 08:37:43;;;;;;;8.80;7.70;;;;;;;3.50;100.00;99967.72;5111469;28;20210;-80
2023/11/22 08:40:20;;;;;;;10.03;8.10;;;;;;;3.48;100.00;99970.56;5078163;28;20205;-79
2023/11/22 08:42:47;;;;;;;8.87;7.97;;;;;;;3.55;100.00;99968.88;5089197;28;20192;-80
2023/11/22 08:45:15;;;;;;;9.07;8.17;;;;;;;3.51;100.00;99967.56;5094020;28;20238;-80
2023/11/22 08:47:42;;;;;;;9.57;8.57;;;;;;;3.66;100.00;99966.91;5082166;28;20200;-81
2023/11/22 08:50:12;;;;;;;10.20;8.40;;;;;;;3.72;100.00;99953.00;5096920;28;20184;-80
2023/11/22 08:52:39;;;;;;;10.63;8.20;;;;;;;3.76;100.00;99951.66;5103161;28;20229;-80
2023/11/22 08:55:07;;;;;;;9.03;8.13;;;;;;;3.79;100.00;99962.75;5089153;28;20199;-79
2023/11/22 08:57:37;;;;;;;10.80;9.03;;;;;;;3.71;100.00;99969.88;5100234;28;20213;-80
2023/11/22 09:00:08;;;;;;;8.80;7.87;;;;;;;3.74;100.00;99970.38;5081156;28;20270;-79
2023/11/22 09:02:36;;;;;;;9.27;8.03;;;;;;;3.67;100.00;99973.88;5075098;28;20652;-79
2023/11/22 09:05:07;;;;;;;9.80;8.30;;;;;;;3.69;100.00;99980.63;5106999;28;20225;-79
2023/11/22 09:07:35;;;;;;;8.77;7.87;;;;;;;3.64;100.00;99985.59;5109760;28;20191;-79
2023/11/22 09:10:09;;;;;;;8.90;8.00;;;;;;;3.69;100.00;99995.72;5098494;28;20279;-80
2023/11/22 09:12:40;;;;;;;8.93;8.03;;;;;;;3.64;100.00;100000.72;5107677;28;20195;-80
2023/11/22 09:15:09;;;;;;;8.50;7.70;;;;;;;3.67;100.00;100003.84;5097514;28;20196;-84
2023/11/22 09:17:43;;;;;;;12.50;9.80;;;;;;;3.75;100.00;100009.13;5102362;28;20262;-79
2023/11/22 09:20:14;;;;;;;8.77;7.83;;;;;;;3.72;100.00;100008.66;5099133;28;20648;-79
2023/11/22 09:22:47;;;;;;;10.13;8.63;;;;;;;3.69;100.00;100023.03;5108263;28;20227;-79
2023/11/22 09:25:22;;;;;;;8.60;7.70;;;;;;;3.70;100.00;100021.22;5098867;28;20294;-79
2023/11/22 09:27:58;;;;;;;11.63;8.43;;;;;;;3.64;100.00;100013.97;5097771;28;20226;-83
2023/11/22 09:30:38;;;;;;;8.87;7.97;;;;;;;3.59;100.00;100009.16;5099544;28;20215;-79
2023/11/22 09:33:07;;;;;;;10.63;9.60;;;;;;;3.68;100.00;100009.97;5101135;28;20731;-80
2023/11/22 09:35:35;;;;;;;10.23;9.10;;;;;;;3.57;100.00;100011.13;5096977;28;20188;-80
2023/11/22 09:38:04;;;;;;;10.30;7.80;;;;;;;3.61;100.00;100017.75;5100543;28;20192;-80
2023/11/22 09:40:35;;;;;;;8.20;7.50;;;;;;;3.69;100.00;100011.59;5102921;28;20184;-80
2023/11/22 09:43:03;;;;;;;8.27;7.47;;;;;;;3.68;100.00;100010.81;5100286;28;20572;-80
2023/11/22 09:45:30;;;;;;;9.27;7.07;;;;;;;3.84;100.00;100016.09;5099415;28;20245;-82
2023/11/22 09:47:58;;;;;;;7.23;6.53;;;;;;;3.92;100.00;100009.94;5094818;28;20236;-80
2023/11/22 09:50:43;;;;;;;8.03;6.80;;;;;;;3.90;100.00;100012.78;5095815;28;20189;-79
2023/11/22 09:53:14;;;;;;;7.67;6.83;;;;;;;3.86;100.00;100000.84;5097684;28;20206;-80
2023/11/22 09:55:43;;;;;;;7.23;6.53;;;;;;;4.03;100.00;100011.41;5095994;28;20195;-80
2023/11/22 09:58:11;;;;;;;7.20;6.50;;;;;;;4.04;100.00;100013.09;5098139;28;20180;-79
2023/11/22 10:00:40;;;;;;;6.67;6.07;;;;;;;3.73;100.00;100018.25;5104774;28;20224;-79
2023/11/22 10:03:07;;;;;;;6.40;5.80;;;;;;;3.73;100.00;100026.22;5094703;28;20500;-78
2023/11/22 10:05:41;;;;;;;6.73;6.03;;;;;;;3.89;100.00;100028.84;5096124;28;20667;-80
2023/11/22 10:08:09;;;;;;;6.20;5.40;;;;;;;3.83;100.00;100034.78;5107852;28;20204;-79
2023/11/22 10:10:37;;;;;;;6.33;5.67;;;;;;;3.70;100.00;100050.38;5108072;28;20212;-80
2023/11/22 10:13:04;;;;;;;5.90;5.40;;;;;;;3.74;100.00;100028.66;5094198;28;20206;-81
2023/11/22 10:15:31;;;;;;;5.50;5.00;;;;;;;3.85;100.00;100035.47;5107726;28;20204;-80
2023/11/22 10:18:00;;;;;;;5.87;5.27;;;;;;;3.87;100.00;100042.25;5104755;27;20196;-80
2023/11/22 10:20:41;;;;;;;6.03;5.40;;;;;;;3.92;100.00;100045.22;5096159;28;20183;-82
2023/11/22 10:23:19;;;;;;;6.20;5.50;;;;;;;4.05;100.00;100039.44;5101115;28;20192;-77
2023/11/22 10:25:49;;;;;;;5.30;4.80;;;;;;;4.14;100.00;100054.34;5092637;28;20211;-80
2023/11/22 10:28:19;;;;;;;5.83;5.00;;;;;;;4.26;100.00;100058.28;5109303;28;20237;-80
2023/11/22 10:30:47;;;;;;;5.43;4.93;;;;;;;4.22;100.00;100077.34;5099326;28;20191;-79
2023/11/22 10:33:15;;;;;;;4.97;4.50;;;;;;;4.25;100.00;100074.34;5104563;28;20201;-80
2023/11/22 10:35:46;;;;;;;5.00;4.60;;;;;;;4.44;100.00;100076.66;5095824;28;20188;-78
2023/11/22 10:38:14;;;;;;;4.97;4.57;;;;;;;4.37;100.00;100070.38;5080929;28;20660;-83
2023/11/22 10:40:45;;;;;;;5.17;4.67;;;;;;;4.48;100.00;100075.31;5108153;28;20189;-80
2023/11/22 10:43:12;;;;;;;4.33;3.93;;;;;;;4.47;100.00;100070.19;5107489;28;20226;-80
2023/11/22 10:45:41;;;;;;;4.70;4.30;;;;;;;4.40;100.00;100073.50;5095713;28;20246;-79
2023/11/22 10:48:15;;;;;;;4.90;4.40;;;;;;;4.50;100.00;100068.03;5090449;28;20301;-79
2023/11/22 10:50:47;;;;;;;4.90;4.50;;;;;;;4.59;100.00;100061.69;5096775;28;20253;-79
2023/11/22 10:53:25;;;;;;;5.20;4.70;;;;;;;4.44;100.00;100066.88;5098865;28;20227;-79
2023/11/22 10:55:57;;;;;;;5.70;5.20;;;;;;;4.42;100.00;100079.50;5104847;28;20671;-78
2023/11/22 10:58:25;;;;;;;6.40;5.20;;;;;;;4.33;100.00;100066.41;5084421;28;20201;-80
2023/11/22 11:00:52;;;;;;;5.50;5.00;;;;;;;4.35;100.00;100064.41;5104827;28;20215;-79
2023/11/22 11:03:20;;;;;;;5.13;4.73;;;;;;;4.11;100.00;100075.03;5101019;28;20279;-81
2023/11/22 11:05:52;;;;;;;6.13;5.53;;;;;;;4.09;100.00;100087.66;5101825;28;20196;-79
2023/11/22 11:08:20;;;;;;;6.30;5.70;;;;;;;3.99;100.00;100078.06;5100643;28;20197;-80
2023/11/22 11:10:49;;;;;;;5.37;4.87;;;;;;;3.98;100.00;100087.00;5102468;28;20224;-79
2023/11/22 11:13:17;;;;;;;5.60;5.10;;;;;;;4.03;100.00;100083.00;5092612;28;20253;-80
2023/11/22 11:15:45;;;;;;;5.80;5.30;;;;;;;4.02;100.00;100091.94;5106106;28;20222;-79
2023/11/22 11:18:15;;;;;;;5.57;5.07;;;;;;;4.09;100.00;100088.47;5095908;28;20200;-79
2023/11/22 11:20:49;;;;;;;5.10;4.63;;;;;;;4.04;100.00;100082.03;5099793;28;20219;-79
2023/11/22 11:23:22;;;;;;;5.27;4.77;;;;;;;3.90;100.00;100089.66;5091888;28;20187;-79
2023/11/22 11:25:50;;;;;;;5.43;4.50;;;;;;;3.88;100.00;100104.88;5104779;28;20192;-80
2023/11/22 11:28:17;;;;;;;5.23;4.73;;;;;;;3.82;100.00;100104.72;5091493;28;20181;-80
2023/11/22 11:30:49;;;;;;;5.50;5.00;;;;;;;3.82;100.00;100115.34;5104074;28;20274;-80
2023/11/22 11:33:26;;;;;;;6.50;5.80;;;;;;;3.84;100.00;100118.63;5080982;28;20192;-79
2023/11/22 11:35:56;;;;;;;6.50;5.70;;;;;;;3.92;100.00;100116.81;5096273;28;20206;-80